sensor_id;sensor_type;location;lat;lon;timestamp;pressure;altitude;pressure_sealevel;temperature
67966;BMP280;54749;47.850;9.002;2022-09-09T00:00:34;95792.09;;;11.28
67966;BMP280;54749;47.850;9.002;2022-09-09T00:03:26;95799.78;;;11.26
67966;BMP280;54749;47.850;9.002;2022-09-09T00:06:01;95814.28;;;11.24
67966;BMP280;54749;47.850;9.002;2022-09-09T00:08:40;95805.22;;;11.22
67966;BMP280;54749;47.850;9.002;2022-09-09T00:11:12;95793.63;;;11.20
67966;BMP280;54749;47.850;9.002;2022-09-09T00:13:47;95785.34;;;11.18
67966;BMP280;54749;47.850;9.002;2022-09-09T00:16:27;95800.22;;;11.11
67966;BMP280;54749;47.850;9.002;2022-09-09T00:19:10;95796.44;;;11.06
67966;BMP280;54749;47.850;9.002;2022-09-09T00:24:27;95793.53;;;11.10
67966;BMP280;54749;47.850;9.002;2022-09-09T00:32:41;95788.16;;;11.04
67966;BMP280;54749;47.850;9.002;2022-09-09T00:35:22;95791.66;;;10.92
67966;BMP280;54749;47.850;9.002;2022-09-09T00:37:53;95789.41;;;10.89
67966;BMP280;54749;47.850;9.002;2022-09-09T00:40:35;95796.53;;;10.85
67966;BMP280;54749;47.850;9.002;2022-09-09T00:48:13;95790.03;;;11.02
67966;BMP280;54749;47.850;9.002;2022-09-09T00:50:53;95794.59;;;11.08
67966;BMP280;54749;47.850;9.002;2022-09-09T00:56:20;95781.41;;;11.24
67966;BMP280;54749;47.850;9.002;2022-09-09T01:01:37;95790.13;;;11.31
67966;BMP280;54749;47.850;9.002;2022-09-09T01:04:13;95797.47;;;11.34
67966;BMP280;54749;47.850;9.002;2022-09-09T01:06:45;95783.88;;;11.35
67966;BMP280;54749;47.850;9.002;2022-09-09T01:12:16;95779.28;;;11.40
67966;BMP280;54749;47.850;9.002;2022-09-09T01:14:52;95764.78;;;11.42
67966;BMP280;54749;47.850;9.002;2022-09-09T01:17:24;95771.56;;;11.41
67966;BMP280;54749;47.850;9.002;2022-09-09T01:23:02;95770.66;;;11.42
67966;BMP280;54749;47.850;9.002;2022-09-09T01:28:38;95770.66;;;11.52
67966;BMP280;54749;47.850;9.002;2022-09-09T01:31:15;95770.19;;;11.57
67966;BMP280;54749;47.850;9.002;2022-09-09T01:33:45;95773.13;;;11.62
67966;BMP280;54749;47.850;9.002;2022-09-09T01:36:35;95767.69;;;11.67
67966;BMP280;54749;47.850;9.002;2022-09-09T01:39:06;95772.38;;;11.71
67966;BMP280;54749;47.850;9.002;2022-09-09T01:41:34;95771.88;;;11.77
67966;BMP280;54749;47.850;9.002;2022-09-09T01:44:08;95775.63;;;11.82
67966;BMP280;54749;47.850;9.002;2022-09-09T01:46:38;95775.25;;;11.87
67966;BMP280;54749;47.850;9.002;2022-09-09T01:49:11;95771.28;;;11.93
67966;BMP280;54749;47.850;9.002;2022-09-09T01:51:38;95787.56;;;12.00
67966;BMP280;54749;47.850;9.002;2022-09-09T01:54:09;95766.91;;;12.05
67966;BMP280;54749;47.850;9.002;2022-09-09T01:56:46;95773.22;;;12.10
67966;BMP280;54749;47.850;9.002;2022-09-09T02:02:13;95769.22;;;12.17
67966;BMP280;54749;47.850;9.002;2022-09-09T02:04:52;95771.50;;;12.20
67966;BMP280;54749;47.850;9.002;2022-09-09T02:10:09;95778.56;;;12.25
67966;BMP280;54749;47.850;9.002;2022-09-09T02:12:42;95775.81;;;12.28
67966;BMP280;54749;47.850;9.002;2022-09-09T02:18:21;95781.53;;;12.30
67966;BMP280;54749;47.850;9.002;2022-09-09T02:20:53;95790.75;;;12.31
67966;BMP280;54749;47.850;9.002;2022-09-09T02:23:20;95792.19;;;12.34
67966;BMP280;54749;47.850;9.002;2022-09-09T02:25:52;95791.81;;;12.38
67966;BMP280;54749;47.850;9.002;2022-09-09T02:28:25;95803.31;;;12.42
67966;BMP280;54749;47.850;9.002;2022-09-09T02:30:54;95800.53;;;12.45
67966;BMP280;54749;47.850;9.002;2022-09-09T02:33:32;95797.72;;;12.48
67966;BMP280;54749;47.850;9.002;2022-09-09T02:36:02;95800.00;;;12.51
67966;BMP280;54749;47.850;9.002;2022-09-09T02:38:34;95808.25;;;12.53
67966;BMP280;54749;47.850;9.002;2022-09-09T02:41:08;95796.94;;;12.57
67966;BMP280;54749;47.850;9.002;2022-09-09T02:43:36;95803.38;;;12.61
67966;BMP280;54749;47.850;9.002;2022-09-09T02:48:52;95786.31;;;12.62
67966;BMP280;54749;47.850;9.002;2022-09-09T02:54:10;95783.09;;;12.61
67966;BMP280;54749;47.850;9.002;2022-09-09T02:56:45;95784.94;;;12.59
67966;BMP280;54749;47.850;9.002;2022-09-09T02:59:14;95782.41;;;12.59
67966;BMP280;54749;47.850;9.002;2022-09-09T03:01:41;95794.97;;;12.60
67966;BMP280;54749;47.850;9.002;2022-09-09T03:04:09;95794.84;;;12.61
67966;BMP280;54749;47.850;9.002;2022-09-09T03:06:38;95805.78;;;12.62
67966;BMP280;54749;47.850;9.002;2022-09-09T03:09:14;95805.66;;;12.63
67966;BMP280;54749;47.850;9.002;2022-09-09T03:11:41;95805.41;;;12.66
67966;BMP280;54749;47.850;9.002;2022-09-09T03:14:08;95805.41;;;12.66
67966;BMP280;54749;47.850;9.002;2022-09-09T03:16:38;95829.69;;;12.69
67966;BMP280;54749;47.850;9.002;2022-09-09T03:19:04;95825.94;;;12.73
67966;BMP280;54749;47.850;9.002;2022-09-09T03:21:32;95817.00;;;12.78
67966;BMP280;54749;47.850;9.002;2022-09-09T03:24:00;95814.88;;;12.83
67966;BMP280;54749;47.850;9.002;2022-09-09T03:26:27;95825.03;;;12.83
67966;BMP280;54749;47.850;9.002;2022-09-09T03:28:54;95819.97;;;12.83
67966;BMP280;54749;47.850;9.002;2022-09-09T03:31:22;95814.63;;;12.86
67966;BMP280;54749;47.850;9.002;2022-09-09T03:33:50;95816.22;;;12.87
67966;BMP280;54749;47.850;9.002;2022-09-09T03:36:19;95806.88;;;12.87
67966;BMP280;54749;47.850;9.002;2022-09-09T03:38:45;95819.44;;;12.89
67966;BMP280;54749;47.850;9.002;2022-09-09T03:41:13;95812.50;;;12.91
67966;BMP280;54749;47.850;9.002;2022-09-09T03:43:40;95809.72;;;12.94
67966;BMP280;54749;47.850;9.002;2022-09-09T03:46:08;95796.34;;;12.92
67966;BMP280;54749;47.850;9.002;2022-09-09T03:48:35;95794.09;;;12.89
67966;BMP280;54749;47.850;9.002;2022-09-09T03:51:03;95799.97;;;12.89
67966;BMP280;54749;47.850;9.002;2022-09-09T03:53:31;95811.84;;;12.89
67966;BMP280;54749;47.850;9.002;2022-09-09T03:55:59;95808.09;;;12.93
67966;BMP280;54749;47.850;9.002;2022-09-09T03:58:27;95818.25;;;12.93
67966;BMP280;54749;47.850;9.002;2022-09-09T04:01:06;95822.91;;;12.97
67966;BMP280;54749;47.850;9.002;2022-09-09T04:03:36;95819.31;;;12.99
67966;BMP280;54749;47.850;9.002;2022-09-09T04:06:04;95823.84;;;13.05
67966;BMP280;54749;47.850;9.002;2022-09-09T04:08:33;95821.03;;;13.08
67966;BMP280;54749;47.850;9.002;2022-09-09T04:11:03;95821.72;;;13.10
67966;BMP280;54749;47.850;9.002;2022-09-09T04:13:35;95814.78;;;13.12
67966;BMP280;54749;47.850;9.002;2022-09-09T04:16:03;95822.13;;;13.15
67966;BMP280;54749;47.850;9.002;2022-09-09T04:18:32;95821.84;;;13.18
67966;BMP280;54749;47.850;9.002;2022-09-09T04:21:00;95820.78;;;13.20
67966;BMP280;54749;47.850;9.002;2022-09-09T04:23:29;95813.97;;;13.21
67966;BMP280;54749;47.850;9.002;2022-09-09T04:25:58;95816.25;;;13.24
67966;BMP280;54749;47.850;9.002;2022-09-09T04:28:29;95812.75;;;13.25
67966;BMP280;54749;47.850;9.002;2022-09-09T04:31:04;95801.97;;;13.23
67966;BMP280;54749;47.850;9.002;2022-09-09T04:33:32;95796.88;;;13.23
67966;BMP280;54749;47.850;9.002;2022-09-09T04:36:06;95802.59;;;13.25
67966;BMP280;54749;47.850;9.002;2022-09-09T04:38:34;95801.44;;;13.29
67966;BMP280;54749;47.850;9.002;2022-09-09T04:41:02;95800.47;;;13.30
67966;BMP280;54749;47.850;9.002;2022-09-09T04:43:30;95806.34;;;13.30
67966;BMP280;54749;47.850;9.002;2022-09-09T04:45:58;95814.13;;;13.29
67966;BMP280;54749;47.850;9.002;2022-09-09T04:48:26;95820.78;;;13.30
67966;BMP280;54749;47.850;9.002;2022-09-09T04:50:59;95822.38;;;13.31
67966;BMP280;54749;47.850;9.002;2022-09-09T04:53:26;95816.38;;;13.31
67966;BMP280;54749;47.850;9.002;2022-09-09T04:56:05;95833.06;;;13.34
67966;BMP280;54749;47.850;9.002;2022-09-09T04:58:38;95833.63;;;13.37
67966;BMP280;54749;47.850;9.002;2022-09-09T05:01:18;95828.13;;;13.42
67966;BMP280;54749;47.850;9.002;2022-09-09T05:03:47;95825.97;;;13.47
67966;BMP280;54749;47.850;9.002;2022-09-09T05:06:20;95829.88;;;13.50
67966;BMP280;54749;47.850;9.002;2022-09-09T05:08:50;95829.47;;;13.55
67966;BMP280;54749;47.850;9.002;2022-09-09T05:11:23;95815.81;;;13.56
67966;BMP280;54749;47.850;9.002;2022-09-09T05:13:54;95811.41;;;13.58
67966;BMP280;54749;47.850;9.002;2022-09-09T05:16:21;95812.06;;;13.60
67966;BMP280;54749;47.850;9.002;2022-09-09T05:18:49;95815.28;;;13.62
67966;BMP280;54749;47.850;9.002;2022-09-09T05:21:20;95810.84;;;13.64
67966;BMP280;54749;47.850;9.002;2022-09-09T05:23:48;95809.78;;;13.66
67966;BMP280;54749;47.850;9.002;2022-09-09T05:26:17;95816.47;;;13.67
67966;BMP280;54749;47.850;9.002;2022-09-09T05:28:47;95809.09;;;13.73
67966;BMP280;54749;47.850;9.002;2022-09-09T05:31:16;95817.00;;;13.89
67966;BMP280;54749;47.850;9.002;2022-09-09T05:33:47;95816.97;;;13.98
67966;BMP280;54749;47.850;9.002;2022-09-09T05:36:17;95816.22;;;14.15
67966;BMP280;54749;47.850;9.002;2022-09-09T05:38:47;95823.97;;;14.13
67966;BMP280;54749;47.850;9.002;2022-09-09T05:41:15;95828.97;;;14.05
67966;BMP280;54749;47.850;9.002;2022-09-09T05:43:47;95817.31;;;14.03
67966;BMP280;54749;47.850;9.002;2022-09-09T05:46:16;95822.94;;;14.06
67966;BMP280;54749;47.850;9.002;2022-09-09T05:48:46;95833.84;;;14.16
67966;BMP280;54749;47.850;9.002;2022-09-09T05:51:17;95833.16;;;14.33
67966;BMP280;54749;47.850;9.002;2022-09-09T05:53:45;95834.47;;;14.63
67966;BMP280;54749;47.850;9.002;2022-09-09T05:56:17;95825.97;;;14.98
67966;BMP280;54749;47.850;9.002;2022-09-09T05:58:45;95824.81;;;15.09
67966;BMP280;54749;47.850;9.002;2022-09-09T06:01:16;95826.16;;;15.55
67966;BMP280;54749;47.850;9.002;2022-09-09T06:03:45;95833.19;;;15.95
67966;BMP280;54749;47.850;9.002;2022-09-09T06:06:14;95828.38;;;16.49
67966;BMP280;54749;47.850;9.002;2022-09-09T06:08:42;95827.75;;;16.48
67966;BMP280;54749;47.850;9.002;2022-09-09T06:11:17;95836.56;;;16.28
67966;BMP280;54749;47.850;9.002;2022-09-09T06:13:44;95830.72;;;16.11
67966;BMP280;54749;47.850;9.002;2022-09-09T06:16:14;95838.34;;;16.28
67966;BMP280;54749;47.850;9.002;2022-09-09T06:18:42;95838.91;;;16.54
67966;BMP280;54749;47.850;9.002;2022-09-09T06:21:36;95836.19;;;17.91
67966;BMP280;54749;47.850;9.002;2022-09-09T06:24:06;95830.16;;;18.37
67966;BMP280;54749;47.850;9.002;2022-09-09T06:26:38;95837.13;;;19.04
67966;BMP280;54749;47.850;9.002;2022-09-09T06:29:12;95832.50;;;19.29
67966;BMP280;54749;47.850;9.002;2022-09-09T06:31:41;95820.72;;;20.50
67966;BMP280;54749;47.850;9.002;2022-09-09T06:34:19;95804.69;;;22.13
67966;BMP280;54749;47.850;9.002;2022-09-09T06:36:49;95812.97;;;22.62
67966;BMP280;54749;47.850;9.002;2022-09-09T06:39:16;95793.28;;;23.65
67966;BMP280;54749;47.850;9.002;2022-09-09T06:41:44;95802.22;;;24.39
67966;BMP280;54749;47.850;9.002;2022-09-09T06:44:30;95797.91;;;25.74
67966;BMP280;54749;47.850;9.002;2022-09-09T06:47:02;95791.13;;;26.03
67966;BMP280;54749;47.850;9.002;2022-09-09T06:49:30;95796.31;;;25.43
67966;BMP280;54749;47.850;9.002;2022-09-09T06:51:57;95802.75;;;24.85
67966;BMP280;54749;47.850;9.002;2022-09-09T06:54:24;95817.75;;;24.45
67966;BMP280;54749;47.850;9.002;2022-09-09T06:56:52;95822.34;;;23.92
67966;BMP280;54749;47.850;9.002;2022-09-09T06:59:22;95827.59;;;23.59
67966;BMP280;54749;47.850;9.002;2022-09-09T07:01:52;95818.84;;;23.35
67966;BMP280;54749;47.850;9.002;2022-09-09T07:04:22;95832.75;;;23.47
67966;BMP280;54749;47.850;9.002;2022-09-09T07:06:49;95822.03;;;23.37
67966;BMP280;54749;47.850;9.002;2022-09-09T07:09:21;95824.66;;;23.04
67966;BMP280;54749;47.850;9.002;2022-09-09T07:11:51;95838.34;;;22.65
67966;BMP280;54749;47.850;9.002;2022-09-09T07:14:23;95845.63;;;22.29
67966;BMP280;54749;47.850;9.002;2022-09-09T07:16:56;95833.25;;;24.13
67966;BMP280;54749;47.850;9.002;2022-09-09T07:19:27;95811.75;;;26.16
67966;BMP280;54749;47.850;9.002;2022-09-09T07:21:55;95808.00;;;27.29
67966;BMP280;54749;47.850;9.002;2022-09-09T07:24:24;95800.06;;;28.22
67966;BMP280;54749;47.850;9.002;2022-09-09T07:26:51;95799.25;;;29.27
67966;BMP280;54749;47.850;9.002;2022-09-09T07:29:19;95807.28;;;30.34
67966;BMP280;54749;47.850;9.002;2022-09-09T07:31:48;95797.41;;;31.52
67966;BMP280;54749;47.850;9.002;2022-09-09T07:34:21;95799.28;;;31.35
67966;BMP280;54749;47.850;9.002;2022-09-09T07:36:48;95797.66;;;30.72
67966;BMP280;54749;47.850;9.002;2022-09-09T07:39:17;95801.91;;;30.41
67966;BMP280;54749;47.850;9.002;2022-09-09T07:41:54;95805.63;;;31.39
67966;BMP280;54749;47.850;9.002;2022-09-09T07:44:24;95799.50;;;31.76
67966;BMP280;54749;47.850;9.002;2022-09-09T07:47:02;95790.13;;;32.72
67966;BMP280;54749;47.850;9.002;2022-09-09T07:49:35;95787.97;;;33.74
67966;BMP280;54749;47.850;9.002;2022-09-09T07:52:04;95797.56;;;33.34
67966;BMP280;54749;47.850;9.002;2022-09-09T07:54:31;95792.72;;;33.12
67966;BMP280;54749;47.850;9.002;2022-09-09T07:57:00;95804.97;;;32.61
67966;BMP280;54749;47.850;9.002;2022-09-09T07:59:29;95791.56;;;33.43
67966;BMP280;54749;47.850;9.002;2022-09-09T08:01:57;95781.78;;;34.33
67966;BMP280;54749;47.850;9.002;2022-09-09T08:04:28;95793.84;;;34.63
67966;BMP280;54749;47.850;9.002;2022-09-09T08:06:58;95797.44;;;35.01
67966;BMP280;54749;47.850;9.002;2022-09-09T08:09:27;95790.50;;;35.34
67966;BMP280;54749;47.850;9.002;2022-09-09T08:12:25;95792.66;;;35.13
67966;BMP280;54749;47.850;9.002;2022-09-09T08:14:52;95802.19;;;34.89
67966;BMP280;54749;47.850;9.002;2022-09-09T08:17:23;95811.66;;;33.98
67966;BMP280;54749;47.850;9.002;2022-09-09T08:19:50;95813.38;;;33.54
67966;BMP280;54749;47.850;9.002;2022-09-09T08:22:23;95830.75;;;31.87
67966;BMP280;54749;47.850;9.002;2022-09-09T08:24:51;95836.38;;;30.59
67966;BMP280;54749;47.850;9.002;2022-09-09T08:27:18;95832.69;;;30.92
67966;BMP280;54749;47.850;9.002;2022-09-09T08:29:45;95839.63;;;29.90
67966;BMP280;54749;47.850;9.002;2022-09-09T08:32:13;95845.31;;;28.88
67966;BMP280;54749;47.850;9.002;2022-09-09T08:34:40;95865.16;;;27.87
67966;BMP280;54749;47.850;9.002;2022-09-09T08:37:17;95867.75;;;27.23
67966;BMP280;54749;47.850;9.002;2022-09-09T08:39:46;95868.31;;;26.90
67966;BMP280;54749;47.850;9.002;2022-09-09T08:42:45;95862.19;;;26.43
67966;BMP280;54749;47.850;9.002;2022-09-09T08:45:25;95850.03;;;26.44
67966;BMP280;54749;47.850;9.002;2022-09-09T08:48:22;95830.59;;;28.60
67966;BMP280;54749;47.850;9.002;2022-09-09T08:50:56;95819.50;;;30.82
67966;BMP280;54749;47.850;9.002;2022-09-09T08:53:42;95815.25;;;32.68
67966;BMP280;54749;47.850;9.002;2022-09-09T08:56:14;95824.31;;;32.25
67966;BMP280;54749;47.850;9.002;2022-09-09T08:58:50;95821.97;;;31.98
67966;BMP280;54749;47.850;9.002;2022-09-09T09:04:22;95842.53;;;29.39
67966;BMP280;54749;47.850;9.002;2022-09-09T09:07:04;95834.13;;;27.92
67966;BMP280;54749;47.850;9.002;2022-09-09T09:12:24;95817.59;;;30.77
67966;BMP280;54749;47.850;9.002;2022-09-09T09:14:54;95809.44;;;32.00
67966;BMP280;54749;47.850;9.002;2022-09-09T09:17:25;95797.38;;;33.60
67966;BMP280;54749;47.850;9.002;2022-09-09T09:19:54;95787.53;;;34.79
67966;BMP280;54749;47.850;9.002;2022-09-09T09:31:08;95795.81;;;35.24
67966;BMP280;54749;47.850;9.002;2022-09-09T09:33:45;95792.56;;;35.47
67966;BMP280;54749;47.850;9.002;2022-09-09T09:36:14;95779.47;;;36.27
67966;BMP280;54749;47.850;9.002;2022-09-09T09:39:00;95776.69;;;37.01
67966;BMP280;54749;47.850;9.002;2022-09-09T09:41:48;95785.38;;;36.09
67966;BMP280;54749;47.850;9.002;2022-09-09T09:44:27;95809.34;;;33.32
67966;BMP280;54749;47.850;9.002;2022-09-09T09:49:33;95807.22;;;30.98
67966;BMP280;54749;47.850;9.002;2022-09-09T09:52:02;95814.94;;;30.08
67966;BMP280;54749;47.850;9.002;2022-09-09T09:54:38;95830.34;;;29.17
67966;BMP280;54749;47.850;9.002;2022-09-09T09:57:13;95828.72;;;29.38
67966;BMP280;54749;47.850;9.002;2022-09-09T09:59:43;95818.69;;;30.01
67966;BMP280;54749;47.850;9.002;2022-09-09T10:02:22;95808.69;;;30.58
67966;BMP280;54749;47.850;9.002;2022-09-09T10:05:16;95809.78;;;30.61
67966;BMP280;54749;47.850;9.002;2022-09-09T10:08:20;95816.53;;;29.05
67966;BMP280;54749;47.850;9.002;2022-09-09T10:14:14;95839.22;;;26.47
67966;BMP280;54749;47.850;9.002;2022-09-09T10:19:33;95820.72;;;25.59
67966;BMP280;54749;47.850;9.002;2022-09-09T10:30:26;95794.03;;;29.00
67966;BMP280;54749;47.850;9.002;2022-09-09T10:32:57;95794.97;;;28.38
67966;BMP280;54749;47.850;9.002;2022-09-09T10:35:34;95799.38;;;27.46
67966;BMP280;54749;47.850;9.002;2022-09-09T10:46:19;95800.34;;;26.23
67966;BMP280;54749;47.850;9.002;2022-09-09T10:49:20;95783.66;;;28.55
67966;BMP280;54749;47.850;9.002;2022-09-09T10:55:16;95792.72;;;27.50
67966;BMP280;54749;47.850;9.002;2022-09-09T11:00:18;95813.63;;;24.99
67966;BMP280;54749;47.850;9.002;2022-09-09T11:03:00;95817.38;;;24.10
67966;BMP280;54749;47.850;9.002;2022-09-09T11:05:46;95826.84;;;23.65
67966;BMP280;54749;47.850;9.002;2022-09-09T11:08:21;95813.50;;;23.55
67966;BMP280;54749;47.850;9.002;2022-09-09T11:11:02;95810.97;;;24.38
67966;BMP280;54749;47.850;9.002;2022-09-09T11:13:33;95803.19;;;24.69
67966;BMP280;54749;47.850;9.002;2022-09-09T11:18:52;95812.53;;;23.69
67966;BMP280;54749;47.850;9.002;2022-09-09T11:21:27;95821.38;;;23.22
67966;BMP280;54749;47.850;9.002;2022-09-09T11:24:04;95828.72;;;23.25
67966;BMP280;54749;47.850;9.002;2022-09-09T11:26:45;95828.66;;;23.13
67966;BMP280;54749;47.850;9.002;2022-09-09T11:29:32;95815.41;;;22.76
67966;BMP280;54749;47.850;9.002;2022-09-09T11:37:42;95801.91;;;22.74
67966;BMP280;54749;47.850;9.002;2022-09-09T11:40:21;95802.78;;;22.87
67966;BMP280;54749;47.850;9.002;2022-09-09T11:42:49;95784.75;;;23.46
67966;BMP280;54749;47.850;9.002;2022-09-09T11:45:25;95782.41;;;23.95
67966;BMP280;54749;47.850;9.002;2022-09-09T11:47:59;95785.94;;;24.25
67966;BMP280;54749;47.850;9.002;2022-09-09T11:50:35;95785.38;;;24.11
67966;BMP280;54749;47.850;9.002;2022-09-09T11:53:23;95786.94;;;23.87
67966;BMP280;54749;47.850;9.002;2022-09-09T11:56:11;95782.53;;;23.55
67966;BMP280;54749;47.850;9.002;2022-09-09T11:58:43;95759.38;;;23.93
67966;BMP280;54749;47.850;9.002;2022-09-09T12:01:59;95760.16;;;24.00
67966;BMP280;54749;47.850;9.002;2022-09-09T12:06:33;95766.09;;;24.07
67966;BMP280;54749;47.850;9.002;2022-09-09T12:15:03;95765.09;;;23.57
67966;BMP280;54749;47.850;9.002;2022-09-09T12:17:46;95764.69;;;23.54
67966;BMP280;54749;47.850;9.002;2022-09-09T12:20:21;95768.47;;;23.45
67966;BMP280;54749;47.850;9.002;2022-09-09T12:23:13;95762.81;;;23.17
67966;BMP280;54749;47.850;9.002;2022-09-09T12:25:53;95765.66;;;23.34
67966;BMP280;54749;47.850;9.002;2022-09-09T12:31:47;95768.88;;;22.90
67966;BMP280;54749;47.850;9.002;2022-09-09T12:36:58;95752.41;;;22.91
67966;BMP280;54749;47.850;9.002;2022-09-09T12:39:34;95762.00;;;23.10
67966;BMP280;54749;47.850;9.002;2022-09-09T12:42:02;95751.56;;;23.24
67966;BMP280;54749;47.850;9.002;2022-09-09T12:44:30;95744.84;;;23.42
67966;BMP280;54749;47.850;9.002;2022-09-09T12:47:01;95745.81;;;23.28
67966;BMP280;54749;47.850;9.002;2022-09-09T12:49:34;95747.72;;;23.07
67966;BMP280;54749;47.850;9.002;2022-09-09T12:52:06;95752.28;;;23.18
67966;BMP280;54749;47.850;9.002;2022-09-09T12:54:35;95742.56;;;23.14
67966;BMP280;54749;47.850;9.002;2022-09-09T12:57:04;95744.91;;;22.96
67966;BMP280;54749;47.850;9.002;2022-09-09T12:59:40;95738.19;;;23.08
67966;BMP280;54749;47.850;9.002;2022-09-09T13:02:19;95728.94;;;23.32
67966;BMP280;54749;47.850;9.002;2022-09-09T13:04:47;95732.72;;;23.23
67966;BMP280;54749;47.850;9.002;2022-09-09T13:07:14;95724.38;;;23.34
67966;BMP280;54749;47.850;9.002;2022-09-09T13:09:44;95718.84;;;23.56
67966;BMP280;54749;47.850;9.002;2022-09-09T13:12:22;95718.81;;;23.69
67966;BMP280;54749;47.850;9.002;2022-09-09T13:14:52;95717.63;;;23.65
67966;BMP280;54749;47.850;9.002;2022-09-09T13:17:22;95726.16;;;23.34
67966;BMP280;54749;47.850;9.002;2022-09-09T13:19:50;95720.28;;;22.87
67966;BMP280;54749;47.850;9.002;2022-09-09T13:22:35;95716.28;;;22.79
67966;BMP280;54749;47.850;9.002;2022-09-09T13:25:13;95714.22;;;23.07
67966;BMP280;54749;47.850;9.002;2022-09-09T13:30:34;95706.53;;;23.39
67966;BMP280;54749;47.850;9.002;2022-09-09T13:38:28;95700.94;;;23.29
67966;BMP280;54749;47.850;9.002;2022-09-09T13:40:59;95711.09;;;23.24
67966;BMP280;54749;47.850;9.002;2022-09-09T13:43:34;95715.44;;;23.24
67966;BMP280;54749;47.850;9.002;2022-09-09T13:46:19;95699.78;;;23.32
67966;BMP280;54749;47.850;9.002;2022-09-09T13:48:59;95692.84;;;23.32
67966;BMP280;54749;47.850;9.002;2022-09-09T13:53:59;95694.63;;;23.57
67966;BMP280;54749;47.850;9.002;2022-09-09T13:56:27;95688.22;;;23.21
67966;BMP280;54749;47.850;9.002;2022-09-09T13:58:54;95698.91;;;23.06
67966;BMP280;54749;47.850;9.002;2022-09-09T14:01:20;95683.06;;;23.02
67966;BMP280;54749;47.850;9.002;2022-09-09T14:03:53;95677.69;;;23.04
67966;BMP280;54749;47.850;9.002;2022-09-09T14:06:20;95681.44;;;22.95
67966;BMP280;54749;47.850;9.002;2022-09-09T14:08:51;95675.66;;;22.81
67966;BMP280;54749;47.850;9.002;2022-09-09T14:11:18;95680.53;;;22.57
67966;BMP280;54749;47.850;9.002;2022-09-09T14:13:46;95685.63;;;22.44
67966;BMP280;54749;47.850;9.002;2022-09-09T14:16:13;95686.81;;;22.42
67966;BMP280;54749;47.850;9.002;2022-09-09T14:18:40;95678.22;;;22.74
67966;BMP280;54749;47.850;9.002;2022-09-09T14:21:07;95684.97;;;22.82
67966;BMP280;54749;47.850;9.002;2022-09-09T14:23:35;95683.63;;;22.85
67966;BMP280;54749;47.850;9.002;2022-09-09T14:26:02;95682.97;;;22.71
67966;BMP280;54749;47.850;9.002;2022-09-09T14:28:29;95686.09;;;22.60
67966;BMP280;54749;47.850;9.002;2022-09-09T14:31:16;95690.38;;;22.41
67966;BMP280;54749;47.850;9.002;2022-09-09T14:33:46;95692.13;;;22.40
67966;BMP280;54749;47.850;9.002;2022-09-09T14:36:13;95684.84;;;22.50
67966;BMP280;54749;47.850;9.002;2022-09-09T14:38:41;95697.13;;;22.48
67966;BMP280;54749;47.850;9.002;2022-09-09T14:41:11;95696.72;;;22.45
67966;BMP280;54749;47.850;9.002;2022-09-09T14:43:39;95700.31;;;22.11
67966;BMP280;54749;47.850;9.002;2022-09-09T14:46:12;95703.00;;;21.96
67966;BMP280;54749;47.850;9.002;2022-09-09T14:48:40;95708.69;;;21.86
67966;BMP280;54749;47.850;9.002;2022-09-09T14:53:34;95709.19;;;22.02
67966;BMP280;54749;47.850;9.002;2022-09-09T14:56:10;95712.78;;;22.07
67966;BMP280;54749;47.850;9.002;2022-09-09T14:58:37;95712.06;;;22.19
67966;BMP280;54749;47.850;9.002;2022-09-09T15:01:07;95711.28;;;22.25
67966;BMP280;54749;47.850;9.002;2022-09-09T15:03:34;95719.09;;;22.05
67966;BMP280;54749;47.850;9.002;2022-09-09T15:06:08;95708.94;;;21.97
67966;BMP280;54749;47.850;9.002;2022-09-09T15:08:36;95721.59;;;21.92
67966;BMP280;54749;47.850;9.002;2022-09-09T15:11:09;95723.72;;;21.62
67966;BMP280;54749;47.850;9.002;2022-09-09T15:13:38;95730.72;;;21.27
67966;BMP280;54749;47.850;9.002;2022-09-09T15:16:17;95734.06;;;21.07
67966;BMP280;54749;47.850;9.002;2022-09-09T15:18:46;95732.38;;;21.00
67966;BMP280;54749;47.850;9.002;2022-09-09T15:21:15;95730.19;;;20.97
67966;BMP280;54749;47.850;9.002;2022-09-09T15:23:43;95747.38;;;20.96
67966;BMP280;54749;47.850;9.002;2022-09-09T15:26:10;95736.31;;;20.96
67966;BMP280;54749;47.850;9.002;2022-09-09T15:28:38;95731.31;;;21.08
67966;BMP280;54749;47.850;9.002;2022-09-09T15:31:08;95720.31;;;21.14
67966;BMP280;54749;47.850;9.002;2022-09-09T15:33:36;95731.13;;;21.30
67966;BMP280;54749;47.850;9.002;2022-09-09T15:36:17;95723.84;;;21.54
67966;BMP280;54749;47.850;9.002;2022-09-09T15:38:45;95720.41;;;21.68
67966;BMP280;54749;47.850;9.002;2022-09-09T15:41:13;95715.00;;;21.63
67966;BMP280;54749;47.850;9.002;2022-09-09T15:43:48;95711.81;;;21.61
67966;BMP280;54749;47.850;9.002;2022-09-09T15:48:44;95721.75;;;21.43
67966;BMP280;54749;47.850;9.002;2022-09-09T15:51:14;95725.03;;;21.31
67966;BMP280;54749;47.850;9.002;2022-09-09T15:54:01;95727.06;;;21.15
67966;BMP280;54749;47.850;9.002;2022-09-09T15:56:29;95730.97;;;21.11
67966;BMP280;54749;47.850;9.002;2022-09-09T15:59:00;95729.25;;;21.04
67966;BMP280;54749;47.850;9.002;2022-09-09T16:01:28;95725.03;;;20.97
67966;BMP280;54749;47.850;9.002;2022-09-09T16:03:56;95733.06;;;20.88
67966;BMP280;54749;47.850;9.002;2022-09-09T16:06:24;95728.19;;;20.78
67966;BMP280;54749;47.850;9.002;2022-09-09T16:08:52;95727.97;;;20.73
67966;BMP280;54749;47.850;9.002;2022-09-09T16:11:24;95734.41;;;20.70
67966;BMP280;54749;47.850;9.002;2022-09-09T16:13:53;95733.56;;;20.63
67966;BMP280;54749;47.850;9.002;2022-09-09T16:16:25;95726.03;;;20.61
67966;BMP280;54749;47.850;9.002;2022-09-09T16:18:56;95724.00;;;20.57
67966;BMP280;54749;47.850;9.002;2022-09-09T16:23:53;95723.94;;;20.51
67966;BMP280;54749;47.850;9.002;2022-09-09T16:26:20;95725.81;;;20.42
67966;BMP280;54749;47.850;9.002;2022-09-09T16:28:47;95736.22;;;20.27
67966;BMP280;54749;47.850;9.002;2022-09-09T16:31:18;95749.53;;;20.16
67966;BMP280;54749;47.850;9.002;2022-09-09T16:33:46;95743.84;;;20.06
67966;BMP280;54749;47.850;9.002;2022-09-09T16:36:19;95744.28;;;19.96
67966;BMP280;54749;47.850;9.002;2022-09-09T16:38:47;95741.19;;;19.86
67966;BMP280;54749;47.850;9.002;2022-09-09T16:41:14;95746.66;;;19.69
67966;BMP280;54749;47.850;9.002;2022-09-09T16:43:41;95745.00;;;19.54
67966;BMP280;54749;47.850;9.002;2022-09-09T16:46:18;95758.56;;;19.40